createdAt,value
2023-04-26T00:00:55.545Z,99572.29
2023-04-26T00:03:23.600Z,99574.11
2023-04-26T00:05:50.937Z,99579.71
2023-04-26T00:08:18.084Z,99579.63
2023-04-26T00:10:45.082Z,99580.20
2023-04-26T00:13:12.088Z,99577.96
2023-04-26T00:15:39.040Z,99584.30
2023-04-26T00:18:06.186Z,99581.45
2023-04-26T00:20:33.470Z,99581.20
2023-04-26T00:23:00.385Z,99585.23
2023-04-26T00:25:27.328Z,99587.80
2023-04-26T00:27:54.329Z,99587.13
2023-04-26T00:30:21.478Z,99587.97
2023-04-26T00:32:48.421Z,99588.25
2023-04-26T00:35:15.785Z,99588.71
2023-04-26T00:37:43.283Z,99586.42
2023-04-26T00:40:11.152Z,99587.05
2023-04-26T00:42:39.509Z,99585.46
2023-04-26T00:45:07.527Z,99583.54
2023-04-26T00:47:34.685Z,99581.09
2023-04-26T00:50:01.824Z,99586.55
2023-04-26T00:52:28.830Z,99589.01
2023-04-26T00:54:56.435Z,99588.40
2023-04-26T00:57:23.414Z,99591.83
2023-04-26T00:59:50.366Z,99590.59
2023-04-26T01:02:17.791Z,99591.64
2023-04-26T01:04:45.812Z,99591.08
2023-04-26T01:07:12.761Z,99592.43
2023-04-26T01:09:39.733Z,99586.71
2023-04-26T01:12:07.449Z,99588.83
2023-04-26T01:14:36.826Z,99590.55
2023-04-26T01:17:03.958Z,99584.77
2023-04-26T01:19:31.018Z,99579.67
2023-04-26T01:21:58.334Z,99578.62
2023-04-26T01:24:25.601Z,99577.33
2023-04-26T01:26:52.520Z,99577.48
2023-04-26T01:29:21.991Z,99577.25
2023-04-26T01:31:49.071Z,99571.90
2023-04-26T01:34:16.193Z,99574.11
2023-04-26T01:36:46.164Z,99572.13
2023-04-26T01:39:13.719Z,99569.50
2023-04-26T01:41:40.767Z,99567.73
2023-04-26T01:44:07.864Z,99570.45
2023-04-26T01:46:34.964Z,99571.08
2023-04-26T01:49:01.968Z,99569.52
2023-04-26T01:51:29.886Z,99575.58
2023-04-26T01:53:56.871Z,99575.05
2023-04-26T01:56:25.266Z,99580.02
2023-04-26T01:58:55.715Z,99581.07
2023-04-26T02:01:23.631Z,99573.38
2023-04-26T02:03:51.457Z,99573.87
2023-04-26T02:06:20.381Z,99573.70
2023-04-26T02:08:47.421Z,99573.02
2023-04-26T02:11:14.374Z,99565.98
2023-04-26T02:13:41.331Z,99566.91
2023-04-26T02:16:08.400Z,99564.64
2023-04-26T02:18:35.492Z,99554.00
2023-04-26T02:21:02.487Z,99553.53
2023-04-26T02:23:31.469Z,99550.75
2023-04-26T02:25:58.464Z,99550.36
2023-04-26T02:28:25.453Z,99545.14
2023-04-26T02:30:56.882Z,99546.38
2023-04-26T02:33:24.480Z,99547.64
2023-04-26T02:35:51.681Z,99547.64
2023-04-26T02:38:19.258Z,99544.22
2023-04-26T02:40:46.325Z,99548.98
2023-04-26T02:43:13.608Z,99551.47
2023-04-26T02:45:43.802Z,99552.52
2023-04-26T02:48:12.279Z,99548.09
2023-04-26T02:50:39.342Z,99545.18
2023-04-26T02:53:06.367Z,99545.48
2023-04-26T02:55:33.764Z,99542.90
2023-04-26T02:58:00.913Z,99547.58
2023-04-26T03:00:28.725Z,99543.48
2023-04-26T03:02:57.180Z,99544.30
2023-04-26T03:05:24.769Z,99541.10
2023-04-26T03:07:52.816Z,99538.25
2023-04-26T03:10:19.881Z,99536.59
2023-04-26T03:12:46.887Z,99539.52
2023-04-26T03:15:15.442Z,99542.30
2023-04-26T03:17:43.474Z,99540.17
2023-04-26T03:20:11.856Z,99537.27
2023-04-26T03:22:39.306Z,99537.21
2023-04-26T03:25:07.946Z,99535.13
2023-04-26T03:27:35.212Z,99541.04
2023-04-26T03:30:02.232Z,99542.30
2023-04-26T03:32:29.958Z,99541.77
2023-04-26T03:34:57.064Z,99538.31
2023-04-26T03:37:24.097Z,99536.16
2023-04-26T03:39:56.778Z,99537.68
2023-04-26T03:42:23.970Z,99537.81
2023-04-26T03:44:51.071Z,99535.73
2023-04-26T03:47:18.265Z,99532.39
2023-04-26T03:49:45.356Z,99534.98
2023-04-26T03:52:12.376Z,99532.19
2023-04-26T03:54:39.430Z,99528.46
2023-04-26T03:57:06.537Z,99528.36
2023-04-26T03:59:33.531Z,99523.57
2023-04-26T04:02:01.119Z,99527.12
2023-04-26T04:04:28.252Z,99524.89
2023-04-26T04:06:56.109Z,99532.09
2023-04-26T04:09:23.111Z,99533.09
2023-04-26T04:11:50.089Z,99535.48
2023-04-26T04:14:17.040Z,99536.48
2023-04-26T04:16:44.016Z,99533.09
2023-04-26T04:19:11.748Z,99534.11
2023-04-26T04:21:40.415Z,99534.62
2023-04-26T04:24:08.149Z,99530.21
2023-04-26T04:26:35.210Z,99529.11
2023-04-26T04:29:09.035Z,99526.77
2023-04-26T04:31:37.156Z,99524.15
2023-04-26T04:34:04.519Z,99521.35
2023-04-26T04:36:32.597Z,99519.63
2023-04-26T04:38:59.706Z,99524.83
2023-04-26T04:41:27.951Z,99522.13
2023-04-26T04:43:55.226Z,99524.22
2023-04-26T04:46:22.871Z,99525.23
2023-04-26T04:48:50.191Z,99527.77
2023-04-26T04:51:17.524Z,99530.16
2023-04-26T04:53:44.554Z,99535.19
2023-04-26T04:56:12.174Z,99533.69
2023-04-26T04:58:41.663Z,99534.10
2023-04-26T05:01:10.064Z,99542.59
2023-04-26T05:03:50.275Z,99542.45
2023-04-26T05:06:17.933Z,99542.54
2023-04-26T05:08:45.292Z,99538.80
2023-04-26T05:11:12.287Z,99541.44
2023-04-26T05:13:39.261Z,99543.55
2023-04-26T05:16:06.624Z,99547.98
2023-04-26T05:18:33.639Z,99551.40
2023-04-26T05:21:00.833Z,99553.81
2023-04-26T05:23:27.924Z,99551.61
2023-04-26T05:25:54.959Z,99554.69
2023-04-26T05:28:40.714Z,99555.98
2023-04-26T05:31:23.743Z,99555.21
2023-04-26T05:34:04.468Z,99552.31
2023-04-26T05:36:36.747Z,99551.73
2023-04-26T05:39:05.994Z,99551.38
2023-04-26T05:41:32.903Z,99549.58
2023-04-26T05:44:00.031Z,99557.70
2023-04-26T05:46:27.110Z,99557.50
2023-04-26T05:48:55.372Z,99553.23
2023-04-26T05:51:22.576Z,99559.11
2023-04-26T05:53:50.235Z,99559.50
2023-04-26T05:56:17.604Z,99558.41
2023-04-26T05:58:44.563Z,99558.15
2023-04-26T06:01:12.594Z,99555.66
2023-04-26T06:03:39.771Z,99551.21
2023-04-26T06:06:08.133Z,99548.19
2023-04-26T06:08:37.304Z,99545.68
2023-04-26T06:11:04.269Z,99545.80
2023-04-26T06:13:31.294Z,99548.71
2023-04-26T06:15:59.616Z,99544.23
2023-04-26T06:18:26.608Z,99542.92
2023-04-26T06:20:53.558Z,99541.34
2023-04-26T06:23:20.639Z,99539.63
2023-04-26T06:25:47.758Z,99535.36
2023-04-26T06:28:15.601Z,99539.24
2023-04-26T06:30:42.939Z,99540.35
2023-04-26T06:33:09.954Z,99539.07
2023-04-26T06:35:42.734Z,99544.35
2023-04-26T06:38:12.781Z,99544.94
2023-04-26T06:40:40.712Z,99544.64
2023-04-26T06:43:08.217Z,99548.54
2023-04-26T06:45:44.446Z,99551.23
2023-04-26T06:48:12.185Z,99547.94
2023-04-26T06:50:40.243Z,99554.11
2023-04-26T06:53:08.287Z,99551.04
2023-04-26T06:55:35.489Z,99551.08
2023-04-26T06:58:02.487Z,99555.95
2023-04-26T07:00:30.410Z,99552.41
2023-04-26T07:02:59.206Z,99553.10
2023-04-26T07:05:26.372Z,99550.73
2023-04-26T07:07:53.376Z,99548.23
2023-04-26T07:10:21.307Z,99547.14
2023-04-26T07:12:48.333Z,99545.70
2023-04-26T07:15:15.774Z,99546.03
2023-04-26T07:17:42.817Z,99542.62
2023-04-26T07:20:10.580Z,99543.34
2023-04-26T07:22:37.608Z,99538.77
2023-04-26T07:25:05.517Z,99536.05
2023-04-26T07:27:32.614Z,99530.56
2023-04-26T07:30:00.765Z,99532.11
2023-04-26T07:32:27.810Z,99533.46
2023-04-26T07:34:54.854Z,99534.41
2023-04-26T07:37:21.990Z,99532.09
2023-04-26T07:39:49.077Z,99536.70
2023-04-26T07:42:16.654Z,99533.46
2023-04-26T07:44:44.528Z,99533.98
2023-04-26T07:47:14.692Z,99537.84
2023-04-26T07:49:42.703Z,99537.95
2023-04-26T07:52:09.702Z,99548.52
2023-04-26T07:54:37.218Z,99550.35
2023-04-26T07:57:04.353Z,99560.08
2023-04-26T07:59:31.573Z,99562.85
2023-04-26T08:01:58.599Z,99563.44
2023-04-26T08:04:34.304Z,99561.85
2023-04-26T08:07:02.176Z,99568.13
2023-04-26T08:09:30.922Z,99571.70
2023-04-26T08:11:58.227Z,99576.35
2023-04-26T08:14:25.504Z,99578.46
2023-04-26T08:16:52.595Z,99578.15
2023-04-26T08:19:19.616Z,99572.07
2023-04-26T08:21:46.557Z,99573.68
2023-04-26T08:24:13.679Z,99575.48
2023-04-26T08:26:41.331Z,99576.27
2023-04-26T08:29:08.274Z,99575.85
2023-04-26T08:31:36.300Z,99561.90
2023-04-26T08:34:03.381Z,99559.55
2023-04-26T08:36:32.570Z,99564.77
2023-04-26T08:39:00.005Z,99557.86
2023-04-26T08:41:27.002Z,99561.36
2023-04-26T08:43:56.171Z,99558.54
2023-04-26T08:46:23.210Z,99557.46
2023-04-26T08:49:01.038Z,99559.61
2023-04-26T08:51:29.051Z,99555.05
2023-04-26T08:53:56.252Z,99550.85
2023-04-26T08:56:24.113Z,99546.83
2023-04-26T08:58:52.137Z,99554.48
2023-04-26T09:01:19.160Z,99551.65
2023-04-26T09:03:47.158Z,99547.35
2023-04-26T09:06:15.351Z,99547.51
2023-04-26T09:08:42.435Z,99552.44
2023-04-26T09:11:09.401Z,99556.71
2023-04-26T09:13:37.313Z,99550.86
2023-04-26T09:16:05.247Z,99555.58
2023-04-26T09:18:34.097Z,99560.75
2023-04-26T09:21:03.005Z,99558.11
2023-04-26T09:23:30.020Z,99559.96
2023-04-26T09:25:56.939Z,99562.58
2023-04-26T09:28:27.358Z,99568.23
2023-04-26T09:30:54.351Z,99567.20
2023-04-26T09:33:21.493Z,99577.45
2023-04-26T09:35:48.547Z,99576.52
2023-04-26T09:38:17.490Z,99577.66
2023-04-26T09:40:46.259Z,99578.01
2023-04-26T09:43:14.146Z,99578.23
2023-04-26T09:45:58.150Z,99583.98
2023-04-26T09:48:30.383Z,99583.95
2023-04-26T09:50:57.741Z,99585.00
2023-04-26T09:53:28.530Z,99587.27
2023-04-26T09:55:56.262Z,99588.83
2023-04-26T09:58:23.529Z,99588.95
2023-04-26T10:00:51.437Z,99593.45
2023-04-26T10:03:20.267Z,99599.23
2023-04-26T10:05:48.036Z,99594.93
2023-04-26T10:08:15.269Z,99594.78
2023-04-26T10:10:42.834Z,99593.32
2023-04-26T10:13:09.774Z,99590.33
2023-04-26T10:15:38.331Z,99587.78
2023-04-26T10:18:05.665Z,99586.39
2023-04-26T10:20:32.629Z,99588.20
2023-04-26T10:23:03.030Z,99585.17
2023-04-26T10:25:40.576Z,99588.13
2023-04-26T10:28:07.853Z,99584.27
2023-04-26T10:30:53.837Z,99594.02
2023-04-26T10:33:21.610Z,99590.27
2023-04-26T10:36:04.088Z,99590.97
2023-04-26T10:38:31.415Z,99590.07
2023-04-26T10:41:31.147Z,99587.26
2023-04-26T10:44:00.078Z,99585.88
2023-04-26T10:46:36.003Z,99588.71
2023-04-26T10:49:20.035Z,99590.78
2023-04-26T10:52:12.709Z,99589.24
2023-04-26T10:54:47.465Z,99588.20
2023-04-26T10:57:14.739Z,99597.30
2023-04-26T11:00:10.998Z,99594.42
2023-04-26T11:02:57.551Z,99598.22
2023-04-26T11:05:34.449Z,99598.32
2023-04-26T11:08:21.362Z,99596.23
2023-04-26T11:10:52.253Z,99597.23
2023-04-26T11:13:20.685Z,99597.38
2023-04-26T11:15:53.407Z,99598.75
2023-04-26T11:18:23.961Z,99598.31
2023-04-26T11:20:50.921Z,99595.73
2023-04-26T11:23:19.433Z,99602.77
2023-04-26T11:25:46.482Z,99597.41
2023-04-26T11:28:13.494Z,99595.92
2023-04-26T11:30:40.504Z,99596.83
2023-04-26T11:33:07.860Z,99596.48
2023-04-26T11:35:39.115Z,99596.07
2023-04-26T11:38:06.322Z,99593.70
2023-04-26T11:40:33.465Z,99594.02
2023-04-26T11:43:02.208Z,99593.97
2023-04-26T11:45:29.381Z,99592.64
2023-04-26T11:47:56.394Z,99598.10
2023-04-26T11:50:26.940Z,99600.81
2023-04-26T11:52:55.912Z,99596.01
2023-04-26T11:55:30.865Z,99594.25
2023-04-26T11:57:58.588Z,99595.68
2023-04-26T12:00:25.896Z,99594.77
2023-04-26T12:02:53.552Z,99592.11
2023-04-26T12:05:33.498Z,99589.75
2023-04-26T12:08:00.953Z,99591.77
2023-04-26T12:10:34.046Z,99588.66
2023-04-26T12:13:01.174Z,99591.46
2023-04-26T12:15:35.052Z,99585.70
2023-04-26T12:18:10.505Z,99587.20
2023-04-26T12:20:39.034Z,99588.14
2023-04-26T12:23:32.930Z,99585.27
2023-04-26T12:26:03.959Z,99586.45
2023-04-26T12:28:31.177Z,99591.19
2023-04-26T12:30:58.160Z,99596.13
2023-04-26T12:33:25.600Z,99594.45
2023-04-26T12:35:52.808Z,99593.20
2023-04-26T12:38:19.984Z,99592.60
2023-04-26T12:40:47.155Z,99593.00
2023-04-26T12:43:15.947Z,99593.90
2023-04-26T12:45:42.933Z,99594.30
2023-04-26T12:48:10.020Z,99594.33
2023-04-26T12:50:37.385Z,99593.18
2023-04-26T12:53:04.446Z,99593.63
2023-04-26T12:55:32.948Z,99595.02
2023-04-26T12:58:00.237Z,99596.14
2023-04-26T13:00:27.279Z,99596.27
2023-04-26T13:02:54.473Z,99600.52
2023-04-26T13:05:24.768Z,99604.85
2023-04-26T13:07:51.974Z,99600.35
2023-04-26T13:10:19.051Z,99602.65
2023-04-26T13:12:46.356Z,99607.95
2023-04-26T13:17:43.064Z,99607.88
2023-04-26T13:20:11.527Z,99605.61
2023-04-26T13:22:42.045Z,99606.36
2023-04-26T13:25:10.290Z,99606.84
2023-04-26T13:27:37.296Z,99605.94
2023-04-26T13:30:04.716Z,99608.65
2023-04-26T13:32:32.209Z,99612.42
2023-04-26T13:34:59.453Z,99610.07
2023-04-26T13:37:27.127Z,99606.84
2023-04-26T13:39:54.480Z,99607.56
2023-04-26T13:42:21.501Z,99607.81
2023-04-26T13:44:48.434Z,99608.48
2023-04-26T13:47:17.706Z,99604.86
2023-04-26T13:49:44.993Z,99605.84
2023-04-26T13:52:12.183Z,99603.45
2023-04-26T13:54:42.073Z,99603.73
2023-04-26T13:57:09.064Z,99604.16
2023-04-26T13:59:36.168Z,99604.67
2023-04-26T14:02:03.881Z,99610.58
2023-04-26T14:04:31.146Z,99604.15
2023-04-26T14:06:58.775Z,99611.15
2023-04-26T14:09:25.810Z,99613.77
2023-04-26T14:12:00.821Z,99625.73
2023-04-26T14:14:34.854Z,99623.02
2023-04-26T14:17:03.906Z,99623.77
2023-04-26T14:19:31.418Z,99629.60
2023-04-26T14:21:58.431Z,99628.23
2023-04-26T14:24:25.570Z,99631.29
2023-04-26T14:26:52.533Z,99629.13
2023-04-26T14:29:19.472Z,99630.15
2023-04-26T14:31:46.637Z,99631.08
2023-04-26T14:34:13.667Z,99627.73
2023-04-26T14:36:40.736Z,99634.77
2023-04-26T14:39:07.894Z,99631.59
2023-04-26T14:41:34.952Z,99628.38
2023-04-26T14:44:02.011Z,99629.22
2023-04-26T14:46:29.119Z,99630.14
2023-04-26T14:48:57.034Z,99632.18
2023-04-26T14:51:24.195Z,99628.79
2023-04-26T14:53:51.170Z,99629.45
2023-04-26T14:56:18.331Z,99629.80
2023-04-26T14:58:45.274Z,99630.02
2023-04-26T15:01:12.349Z,99627.77
2023-04-26T15:03:39.640Z,99627.38
2023-04-26T15:06:12.312Z,99628.34
2023-04-26T15:08:39.307Z,99628.02
2023-04-26T15:11:06.614Z,99627.95
2023-04-26T15:13:33.560Z,99624.26
2023-04-26T15:16:08.061Z,99623.19
2023-04-26T15:18:36.338Z,99625.47
2023-04-26T15:21:03.424Z,99625.77
2023-04-26T15:23:30.722Z,99621.98
2023-04-26T15:26:02.235Z,99622.15
2023-04-26T15:28:29.404Z,99617.55
2023-04-26T15:31:08.911Z,99615.73
2023-04-26T15:33:36.546Z,99613.45
2023-04-26T15:36:03.772Z,99607.47
2023-04-26T15:38:30.833Z,99603.34
2023-04-26T15:40:59.641Z,99604.45
2023-04-26T15:43:27.273Z,99603.59
2023-04-26T15:45:54.438Z,99601.86
2023-04-26T15:48:22.128Z,99600.39
2023-04-26T15:50:50.697Z,99599.73
2023-04-26T15:53:17.905Z,99599.48
2023-04-26T15:55:45.230Z,99605.77
2023-04-26T15:58:12.178Z,99606.72
2023-04-26T16:00:39.918Z,99610.29
2023-04-26T16:03:07.401Z,99606.90
2023-04-26T16:05:34.677Z,99610.14
2023-04-26T16:08:01.837Z,99613.34
2023-04-26T16:10:29.372Z,99612.59
2023-04-26T16:12:56.641Z,99615.84
2023-04-26T16:15:23.683Z,99619.64
2023-04-26T16:17:51.474Z,99622.89
2023-04-26T16:20:20.357Z,99625.95
2023-04-26T16:22:47.422Z,99623.41
2023-04-26T16:25:16.423Z,99624.40
2023-04-26T16:27:46.404Z,99626.64
2023-04-26T16:30:13.804Z,99625.00
2023-04-26T16:32:40.913Z,99626.39
2023-04-26T16:35:08.977Z,99623.44
2023-04-26T16:37:35.949Z,99622.27
2023-04-26T16:40:05.199Z,99622.60
2023-04-26T16:42:32.251Z,99623.15
2023-04-26T16:44:59.280Z,99622.40
2023-04-26T16:47:26.962Z,99623.21
2023-04-26T16:49:53.970Z,99624.02
2023-04-26T16:52:21.065Z,99627.13
2023-04-26T16:54:48.037Z,99626.76
2023-04-26T16:57:14.965Z,99627.22
2023-04-26T16:59:42.260Z,99625.52
2023-04-26T17:02:09.530Z,99627.58
2023-04-26T17:04:36.692Z,99628.95
2023-04-26T17:07:04.214Z,99630.35
2023-04-26T17:09:31.478Z,99625.81
2023-04-26T17:11:58.556Z,99627.16
2023-04-26T17:14:25.678Z,99629.55
2023-04-26T17:16:56.077Z,99630.69
2023-04-26T17:19:23.274Z,99632.59
2023-04-26T17:21:50.306Z,99634.81
2023-04-26T17:24:20.875Z,99642.43
2023-04-26T17:26:48.135Z,99642.17
2023-04-26T17:29:15.177Z,99644.94
2023-04-26T17:31:42.231Z,99643.67
2023-04-26T17:34:09.586Z,99645.47
2023-04-26T17:36:36.837Z,99646.70
2023-04-26T17:39:03.847Z,99642.34
2023-04-26T17:41:30.951Z,99645.41
2023-04-26T17:43:58.013Z,99644.52
2023-04-26T17:46:24.990Z,99647.41
2023-04-26T17:48:52.060Z,99651.36
2023-04-26T17:51:19.114Z,99653.69
2023-04-26T17:53:46.579Z,99656.92
2023-04-26T17:56:13.637Z,99659.54
2023-04-26T17:58:40.742Z,99659.90
2023-04-26T18:01:07.980Z,99660.26
2023-04-26T18:03:36.072Z,99662.55
2023-04-26T18:06:03.706Z,99666.14
2023-04-26T18:08:30.786Z,99669.83
2023-04-26T18:10:58.261Z,99674.44
2023-04-26T18:13:25.251Z,99674.27
2023-04-26T18:15:54.289Z,99674.41
2023-04-26T18:18:21.356Z,99674.73
2023-04-26T18:20:48.394Z,99677.60
2023-04-26T18:23:16.543Z,99680.35
2023-04-26T18:25:43.613Z,99679.92
2023-04-26T18:28:10.729Z,99682.96
2023-04-26T18:30:37.659Z,99677.28
2023-04-26T18:33:05.227Z,99681.96
2023-04-26T18:35:32.330Z,99682.95
2023-04-26T18:37:59.275Z,99684.14
2023-04-26T18:40:26.232Z,99686.22
2023-04-26T18:42:53.371Z,99686.12
2023-04-26T18:45:20.294Z,99683.45
2023-04-26T18:47:47.616Z,99681.59
2023-04-26T18:50:14.617Z,99683.67
2023-04-26T18:52:41.625Z,99683.70
2023-04-26T18:55:09.378Z,99683.13
2023-04-26T18:57:36.423Z,99686.96
2023-04-26T19:00:06.659Z,99685.16
2023-04-26T19:02:36.506Z,99683.30
2023-04-26T19:05:05.271Z,99687.12
2023-04-26T19:07:32.505Z,99683.23
2023-04-26T19:10:01.331Z,99685.29
2023-04-26T19:12:54.352Z,99689.23
2023-04-26T19:15:21.628Z,99685.52
2023-04-26T19:17:50.373Z,99683.63
2023-04-26T19:20:17.695Z,99681.39
2023-04-26T19:22:46.339Z,99684.64
2023-04-26T19:25:14.080Z,99688.88
2023-04-26T19:27:41.248Z,99698.52
2023-04-26T19:30:09.818Z,99694.58
2023-04-26T19:32:37.329Z,99692.36
2023-04-26T19:35:06.211Z,99689.70
2023-04-26T19:37:33.218Z,99679.98
2023-04-26T19:40:00.513Z,99682.11
2023-04-26T19:42:27.926Z,99681.80
2023-04-26T19:44:55.078Z,99679.71
2023-04-26T19:47:22.035Z,99681.88
2023-04-26T19:49:51.768Z,99679.83
2023-04-26T19:52:20.005Z,99679.57
2023-04-26T19:54:46.946Z,99681.33
2023-04-26T19:57:13.958Z,99678.99
2023-04-26T19:59:41.002Z,99674.95
2023-04-26T20:02:08.129Z,99676.16
2023-04-26T20:04:36.355Z,99675.75
2023-04-26T20:07:05.199Z,99682.07
2023-04-26T20:09:32.590Z,99679.27
2023-04-26T20:12:00.316Z,99675.27
2023-04-26T20:14:30.544Z,99674.37
2023-04-26T20:17:02.273Z,99672.01
2023-04-26T20:19:29.686Z,99670.38
2023-04-26T20:21:57.075Z,99665.17
2023-04-26T20:24:49.804Z,99667.50
2023-04-26T20:27:16.862Z,99665.41
2023-04-26T20:29:46.999Z,99664.58
2023-04-26T20:32:14.168Z,99664.86
2023-04-26T20:34:41.599Z,99663.16
2023-04-26T20:37:08.540Z,99667.00
2023-04-26T20:39:35.509Z,99672.13
2023-04-26T20:42:02.500Z,99674.10
2023-04-26T20:44:30.057Z,99674.52
2023-04-26T20:46:57.540Z,99676.66
2023-04-26T20:49:24.511Z,99676.80
2023-04-26T20:51:51.747Z,99678.70
2023-04-26T20:54:18.680Z,99677.23
2023-04-26T20:56:45.709Z,99679.23
2023-04-26T20:59:12.760Z,99678.30
2023-04-26T21:01:39.818Z,99677.47
2023-04-26T21:04:06.886Z,99681.56
2023-04-26T21:06:33.887Z,99684.08
2023-04-26T21:09:00.826Z,99683.26
2023-04-26T21:11:27.960Z,99686.55
2023-04-26T21:13:54.975Z,99689.81
2023-04-26T21:16:22.053Z,99694.36
2023-04-26T21:18:49.227Z,99692.23
2023-04-26T21:21:16.181Z,99696.34
2023-04-26T21:23:46.330Z,99699.70
2023-04-26T21:26:13.614Z,99707.36
2023-04-26T21:28:40.733Z,99705.29
2023-04-26T21:31:07.906Z,99701.98
2023-04-26T21:33:34.991Z,99706.88
2023-04-26T21:36:01.990Z,99706.69
2023-04-26T21:38:28.982Z,99708.66
2023-04-26T21:40:56.087Z,99708.28
2023-04-26T21:43:23.065Z,99709.91
2023-04-26T21:45:52.405Z,99717.17
2023-04-26T21:48:19.422Z,99718.69
2023-04-26T21:50:49.020Z,99720.83
2023-04-26T21:53:16.761Z,99728.73
2023-04-26T21:55:44.043Z,99727.23
2023-04-26T21:58:11.080Z,99733.23
2023-04-26T22:00:38.132Z,99736.55
2023-04-26T22:03:05.427Z,99736.20
2023-04-26T22:05:32.472Z,99733.04
2023-04-26T22:07:59.477Z,99733.53
2023-04-26T22:10:26.960Z,99734.19
2023-04-26T22:12:53.877Z,99735.73
2023-04-26T22:15:21.248Z,99733.44
2023-04-26T22:17:48.250Z,99736.75
2023-04-26T22:20:15.233Z,99739.98
2023-04-26T22:22:42.321Z,99746.42
2023-04-26T22:25:09.923Z,99747.64
2023-04-26T22:27:36.933Z,99754.26
2023-04-26T22:30:20.359Z,99765.80
2023-04-26T22:32:54.683Z,99765.58
2023-04-26T22:35:25.284Z,99770.66
2023-04-26T22:37:52.499Z,99769.09
2023-04-26T22:40:19.618Z,99765.36
2023-04-26T22:42:46.650Z,99763.60
2023-04-26T22:45:14.014Z,99766.30
2023-04-26T22:47:41.051Z,99768.73
2023-04-26T22:50:08.361Z,99771.00
2023-04-26T22:52:35.529Z,99771.71
2023-04-26T22:55:02.644Z,99771.98
2023-04-26T22:57:30.529Z,99771.27
2023-04-26T22:59:57.451Z,99772.12
2023-04-26T23:02:24.497Z,99773.63
2023-04-26T23:04:51.530Z,99771.57
2023-04-26T23:07:18.666Z,99774.05
2023-04-26T23:09:45.787Z,99773.93
2023-04-26T23:12:17.237Z,99773.48
2023-04-26T23:14:44.212Z,99772.69
2023-04-26T23:17:12.241Z,99771.75
2023-04-26T23:19:39.468Z,99775.75
2023-04-26T23:22:06.597Z,99779.89
2023-04-26T23:24:33.529Z,99779.27
2023-04-26T23:27:01.436Z,99781.19
2023-04-26T23:29:28.407Z,99782.71
2023-04-26T23:31:55.655Z,99785.98
2023-04-26T23:34:22.679Z,99783.08
2023-04-26T23:36:49.667Z,99786.60
2023-04-26T23:39:17.086Z,99788.25
2023-04-26T23:41:44.109Z,99792.65
2023-04-26T23:44:11.357Z,99792.94
2023-04-26T23:46:38.313Z,99792.22
2023-04-26T23:49:05.287Z,99789.42
2023-04-26T23:51:32.939Z,99797.50
2023-04-26T23:53:59.923Z,99802.92
2023-04-26T23:56:26.897Z,99808.75
2023-04-26T23:58:54.628Z,99804.21
